sensor_id;sensor_type;location;lat;lon;timestamp;pressure;altitude;pressure_sealevel;temperature;humidity
77469;BME280;66567;50.272;12.818;2023-02-20T00:02:05;96660;;;4.6;80.8
77469;BME280;66567;50.272;12.818;2023-02-20T00:04:05;96657;;;4.6;80.9
77469;BME280;66567;50.272;12.818;2023-02-20T00:06:05;96654;;;4.6;81.0
77469;BME280;66567;50.272;12.818;2023-02-20T00:08:05;96652;;;4.6;80.9
77469;BME280;66567;50.272;12.818;2023-02-20T00:12:05;96653;;;4.6;80.8
77469;BME280;66567;50.272;12.818;2023-02-20T00:14:05;96652;;;4.6;80.8
77469;BME280;66567;50.272;12.818;2023-02-20T00:20:05;96657;;;4.6;80.8
77469;BME280;66567;50.272;12.818;2023-02-20T00:22:05;96654;;;4.6;80.9
77469;BME280;66567;50.272;12.818;2023-02-20T00:24:05;96652;;;4.6;80.8
77469;BME280;66567;50.272;12.818;2023-02-20T00:26:09;96651;;;4.6;80.8
77469;BME280;66567;50.272;12.818;2023-02-20T00:32:05;96648;;;4.7;80.8
77469;BME280;66567;50.272;12.818;2023-02-20T00:38:05;96644;;;4.7;80.9
77469;BME280;66567;50.272;12.818;2023-02-20T00:40:05;96644;;;4.7;80.9
77469;BME280;66567;50.272;12.818;2023-02-20T00:44:05;96642;;;4.7;80.9
77469;BME280;66567;50.272;12.818;2023-02-20T00:54:05;96643;;;4.8;80.9
77469;BME280;66567;50.272;12.818;2023-02-20T00:58:05;96643;;;4.8;81.0
77469;BME280;66567;50.272;12.818;2023-02-20T01:00:06;96645;;;4.8;81.1
77469;BME280;66567;50.272;12.818;2023-02-20T01:12:05;96652;;;4.8;81.0
77469;BME280;66567;50.272;12.818;2023-02-20T01:18:06;96644;;;4.8;81.3
77469;BME280;66567;50.272;12.818;2023-02-20T01:24:05;96635;;;4.9;81.7
77469;BME280;66567;50.272;12.818;2023-02-20T01:30:06;96638;;;4.9;82.1
77469;BME280;66567;50.272;12.818;2023-02-20T01:36:05;96634;;;4.9;82.3
77469;BME280;66567;50.272;12.818;2023-02-20T01:38:05;96631;;;4.9;82.2
77469;BME280;66567;50.272;12.818;2023-02-20T01:42:06;96629;;;4.9;82.5
77469;BME280;66567;50.272;12.818;2023-02-20T01:44:15;96627;;;4.9;82.5
77469;BME280;66567;50.272;12.818;2023-02-20T01:50:06;96602;;;5.0;82.6
77469;BME280;66567;50.272;12.818;2023-02-20T02:08:05;96604;;;5.1;82.8
77469;BME280;66567;50.272;12.818;2023-02-20T02:16:10;96586;;;5.1;82.9
77469;BME280;66567;50.272;12.818;2023-02-20T02:44:15;96593;;;5.2;82.5
77469;BME280;66567;50.272;12.818;2023-02-20T03:00:14;96585;;;5.2;82.2
77469;BME280;66567;50.272;12.818;2023-02-20T03:04:05;96575;;;5.2;82.1
77469;BME280;66567;50.272;12.818;2023-02-20T03:10:07;96569;;;5.2;82.0
77469;BME280;66567;50.272;12.818;2023-02-20T03:16:05;96571;;;5.2;81.5
77469;BME280;66567;50.272;12.818;2023-02-20T03:18:11;96564;;;5.2;80.6
77469;BME280;66567;50.272;12.818;2023-02-20T03:20:08;96561;;;5.2;80.3
77469;BME280;66567;50.272;12.818;2023-02-20T03:22:09;96560;;;5.1;79.9
77469;BME280;66567;50.272;12.818;2023-02-20T03:30:11;96570;;;5.0;79.3
77469;BME280;66567;50.272;12.818;2023-02-20T03:32:16;96568;;;5.0;79.1
77469;BME280;66567;50.272;12.818;2023-02-20T03:36:19;96565;;;5.0;79.0
77469;BME280;66567;50.272;12.818;2023-02-20T03:40:18;96564;;;5.0;78.8
77469;BME280;66567;50.272;12.818;2023-02-20T03:42:16;96559;;;5.0;78.5
77469;BME280;66567;50.272;12.818;2023-02-20T03:44:05;96564;;;5.0;78.5
77469;BME280;66567;50.272;12.818;2023-02-20T03:50:06;96565;;;5.0;78.3
77469;BME280;66567;50.272;12.818;2023-02-20T03:52:05;96567;;;4.9;78.1
77469;BME280;66567;50.272;12.818;2023-02-20T03:54:05;96570;;;4.9;78.0
77469;BME280;66567;50.272;12.818;2023-02-20T03:56:08;96571;;;4.9;77.8
77469;BME280;66567;50.272;12.818;2023-02-20T03:58:07;96570;;;4.9;77.6
77469;BME280;66567;50.272;12.818;2023-02-20T04:00:08;96573;;;4.9;77.6
77469;BME280;66567;50.272;12.818;2023-02-20T04:02:10;96578;;;4.8;77.4
77469;BME280;66567;50.272;12.818;2023-02-20T04:06:06;96585;;;4.8;77.5
77469;BME280;66567;50.272;12.818;2023-02-20T04:08:09;96580;;;4.8;77.3
77469;BME280;66567;50.272;12.818;2023-02-20T04:10:06;96572;;;4.8;77.1
77469;BME280;66567;50.272;12.818;2023-02-20T04:12:11;96574;;;4.8;77.2
77469;BME280;66567;50.272;12.818;2023-02-20T04:14:05;96578;;;4.8;77.1
77469;BME280;66567;50.272;12.818;2023-02-20T04:16:05;96578;;;4.8;77.1
77469;BME280;66567;50.272;12.818;2023-02-20T04:18:08;96580;;;4.9;77.3
77469;BME280;66567;50.272;12.818;2023-02-20T04:20:05;96584;;;4.9;77.4
77469;BME280;66567;50.272;12.818;2023-02-20T04:22:06;96593;;;4.9;77.3
77469;BME280;66567;50.272;12.818;2023-02-20T04:24:08;96596;;;4.9;77.4
77469;BME280;66567;50.272;12.818;2023-02-20T04:26:08;96603;;;4.9;77.4
77469;BME280;66567;50.272;12.818;2023-02-20T04:28:05;96604;;;4.9;77.6
77469;BME280;66567;50.272;12.818;2023-02-20T04:30:05;96604;;;4.9;77.6
77469;BME280;66567;50.272;12.818;2023-02-20T04:32:05;96599;;;4.9;77.6
77469;BME280;66567;50.272;12.818;2023-02-20T04:34:05;96594;;;4.9;77.6
77469;BME280;66567;50.272;12.818;2023-02-20T04:36:05;96594;;;4.9;77.5
77469;BME280;66567;50.272;12.818;2023-02-20T04:38:06;96589;;;4.9;77.5
77469;BME280;66567;50.272;12.818;2023-02-20T04:40:05;96586;;;4.9;77.6
77469;BME280;66567;50.272;12.818;2023-02-20T04:42:05;96588;;;4.9;77.6
77469;BME280;66567;50.272;12.818;2023-02-20T04:44:15;96585;;;4.9;77.7
77469;BME280;66567;50.272;12.818;2023-02-20T04:46:05;96582;;;4.9;77.7
77469;BME280;66567;50.272;12.818;2023-02-20T04:48:05;96582;;;4.9;77.7
77469;BME280;66567;50.272;12.818;2023-02-20T04:50:05;96582;;;4.9;77.7
77469;BME280;66567;50.272;12.818;2023-02-20T04:52:05;96580;;;4.9;77.7
77469;BME280;66567;50.272;12.818;2023-02-20T04:54:05;96582;;;4.9;77.7
77469;BME280;66567;50.272;12.818;2023-02-20T04:56:05;96586;;;4.9;77.5
77469;BME280;66567;50.272;12.818;2023-02-20T04:58:05;96589;;;4.9;77.5
77469;BME280;66567;50.272;12.818;2023-02-20T05:00:07;96593;;;4.9;77.5
77469;BME280;66567;50.272;12.818;2023-02-20T05:02:05;96593;;;4.9;77.4
77469;BME280;66567;50.272;12.818;2023-02-20T05:04:05;96594;;;4.9;77.3
77469;BME280;66567;50.272;12.818;2023-02-20T05:06:05;96594;;;4.9;77.2
77469;BME280;66567;50.272;12.818;2023-02-20T05:08:06;96598;;;4.9;77.1
77469;BME280;66567;50.272;12.818;2023-02-20T05:10:05;96601;;;4.9;77.0
77469;BME280;66567;50.272;12.818;2023-02-20T05:12:05;96604;;;4.9;77.0
77469;BME280;66567;50.272;12.818;2023-02-20T05:14:05;96604;;;4.9;76.8
77469;BME280;66567;50.272;12.818;2023-02-20T05:16:05;96602;;;4.9;76.8
77469;BME280;66567;50.272;12.818;2023-02-20T05:18:05;96599;;;4.9;76.8
77469;BME280;66567;50.272;12.818;2023-02-20T05:20:05;96600;;;4.9;76.8
77469;BME280;66567;50.272;12.818;2023-02-20T05:22:19;96596;;;4.9;76.8
77469;BME280;66567;50.272;12.818;2023-02-20T05:24:05;96588;;;4.9;76.5
77469;BME280;66567;50.272;12.818;2023-02-20T05:26:17;96587;;;4.9;76.0
77469;BME280;66567;50.272;12.818;2023-02-20T05:28:05;96591;;;4.9;76.0
77469;BME280;66567;50.272;12.818;2023-02-20T05:30:06;96596;;;4.9;76.0
77469;BME280;66567;50.272;12.818;2023-02-20T05:32:05;96597;;;4.8;75.9
77469;BME280;66567;50.272;12.818;2023-02-20T05:34:05;96591;;;4.8;75.6
77469;BME280;66567;50.272;12.818;2023-02-20T05:36:05;96587;;;4.8;75.6
77469;BME280;66567;50.272;12.818;2023-02-20T05:38:05;96585;;;4.8;75.5
77469;BME280;66567;50.272;12.818;2023-02-20T05:40:05;96583;;;4.8;75.3
77469;BME280;66567;50.272;12.818;2023-02-20T05:42:05;96585;;;4.8;75.3
77469;BME280;66567;50.272;12.818;2023-02-20T05:44:05;96591;;;4.8;75.2
77469;BME280;66567;50.272;12.818;2023-02-20T05:46:05;96598;;;4.8;75.2
77469;BME280;66567;50.272;12.818;2023-02-20T05:48:05;96607;;;4.8;75.1
77469;BME280;66567;50.272;12.818;2023-02-20T05:50:05;96603;;;4.7;75.2
77469;BME280;66567;50.272;12.818;2023-02-20T05:52:12;96598;;;4.7;75.1
77469;BME280;66567;50.272;12.818;2023-02-20T05:54:05;96593;;;4.7;75.1
77469;BME280;66567;50.272;12.818;2023-02-20T05:56:05;96584;;;4.7;75.3
77469;BME280;66567;50.272;12.818;2023-02-20T05:58:05;96579;;;4.7;75.2
77469;BME280;66567;50.272;12.818;2023-02-20T06:00:05;96575;;;4.7;75.3
77469;BME280;66567;50.272;12.818;2023-02-20T06:02:05;96574;;;4.7;75.4
77469;BME280;66567;50.272;12.818;2023-02-20T06:04:05;96571;;;4.7;75.5
77469;BME280;66567;50.272;12.818;2023-02-20T06:06:05;96563;;;4.6;75.5
77469;BME280;66567;50.272;12.818;2023-02-20T06:08:05;96558;;;4.6;75.6
77469;BME280;66567;50.272;12.818;2023-02-20T06:10:05;96552;;;4.6;75.6
77469;BME280;66567;50.272;12.818;2023-02-20T06:12:05;96554;;;4.6;75.6
77469;BME280;66567;50.272;12.818;2023-02-20T06:14:05;96554;;;4.6;75.8
77469;BME280;66567;50.272;12.818;2023-02-20T06:16:05;96561;;;4.6;75.9
77469;BME280;66567;50.272;12.818;2023-02-20T06:18:05;96567;;;4.6;75.9
77469;BME280;66567;50.272;12.818;2023-02-20T06:20:05;96566;;;4.6;75.9
77469;BME280;66567;50.272;12.818;2023-02-20T06:22:05;96560;;;4.6;75.9
77469;BME280;66567;50.272;12.818;2023-02-20T06:24:05;96558;;;4.6;76.1
77469;BME280;66567;50.272;12.818;2023-02-20T06:26:05;96553;;;4.6;76.2
77469;BME280;66567;50.272;12.818;2023-02-20T06:28:05;96553;;;4.6;76.1
77469;BME280;66567;50.272;12.818;2023-02-20T06:30:05;96549;;;4.6;76.0
77469;BME280;66567;50.272;12.818;2023-02-20T06:32:05;96553;;;4.6;76.2
77469;BME280;66567;50.272;12.818;2023-02-20T06:34:06;96551;;;4.6;76.1
77469;BME280;66567;50.272;12.818;2023-02-20T06:36:05;96558;;;4.6;76.2
77469;BME280;66567;50.272;12.818;2023-02-20T06:38:05;96559;;;4.6;76.2
77469;BME280;66567;50.272;12.818;2023-02-20T06:40:05;96560;;;4.6;76.2
77469;BME280;66567;50.272;12.818;2023-02-20T06:42:05;96560;;;4.6;76.1
77469;BME280;66567;50.272;12.818;2023-02-20T06:44:05;96565;;;4.6;76.1
77469;BME280;66567;50.272;12.818;2023-02-20T06:46:05;96582;;;4.6;76.2
77469;BME280;66567;50.272;12.818;2023-02-20T06:48:05;96590;;;4.6;76.0
77469;BME280;66567;50.272;12.818;2023-02-20T06:50:05;96594;;;4.6;76.1
77469;BME280;66567;50.272;12.818;2023-02-20T06:52:05;96597;;;4.6;76.0
77469;BME280;66567;50.272;12.818;2023-02-20T06:54:06;96594;;;4.7;75.8
77469;BME280;66567;50.272;12.818;2023-02-20T06:56:06;96593;;;4.7;75.9
77469;BME280;66567;50.272;12.818;2023-02-20T06:58:05;96594;;;4.7;75.7
77469;BME280;66567;50.272;12.818;2023-02-20T07:00:06;96598;;;4.7;75.6
77469;BME280;66567;50.272;12.818;2023-02-20T07:02:05;96607;;;4.7;75.5
77469;BME280;66567;50.272;12.818;2023-02-20T07:04:12;96614;;;4.7;75.4
77469;BME280;66567;50.272;12.818;2023-02-20T07:06:05;96604;;;4.7;75.5
77469;BME280;66567;50.272;12.818;2023-02-20T07:08:05;96592;;;4.8;75.4
77469;BME280;66567;50.272;12.818;2023-02-20T07:10:05;96587;;;4.8;75.2
77469;BME280;66567;50.272;12.818;2023-02-20T07:12:05;96581;;;4.8;75.1
77469;BME280;66567;50.272;12.818;2023-02-20T07:14:05;96581;;;4.8;74.9
77469;BME280;66567;50.272;12.818;2023-02-20T07:16:05;96585;;;4.8;75.0
77469;BME280;66567;50.272;12.818;2023-02-20T07:18:05;96590;;;4.8;75.0
77469;BME280;66567;50.272;12.818;2023-02-20T07:20:05;96594;;;4.8;74.9
77469;BME280;66567;50.272;12.818;2023-02-20T07:22:05;96585;;;4.8;74.7
77469;BME280;66567;50.272;12.818;2023-02-20T07:24:05;96578;;;4.8;74.7
77469;BME280;66567;50.272;12.818;2023-02-20T07:26:05;96578;;;4.9;74.4
77469;BME280;66567;50.272;12.818;2023-02-20T07:28:07;96575;;;4.9;74.4
77469;BME280;66567;50.272;12.818;2023-02-20T07:30:05;96566;;;4.9;74.2
77469;BME280;66567;50.272;12.818;2023-02-20T07:32:05;96567;;;4.9;74.2
77469;BME280;66567;50.272;12.818;2023-02-20T07:34:05;96568;;;5.0;74.4
77469;BME280;66567;50.272;12.818;2023-02-20T07:36:06;96563;;;5.0;74.2
77469;BME280;66567;50.272;12.818;2023-02-20T07:38:05;96561;;;5.0;73.9
77469;BME280;66567;50.272;12.818;2023-02-20T07:40:05;96571;;;5.0;73.9
77469;BME280;66567;50.272;12.818;2023-02-20T07:42:05;96583;;;5.0;73.7
77469;BME280;66567;50.272;12.818;2023-02-20T07:44:05;96586;;;5.1;73.9
77469;BME280;66567;50.272;12.818;2023-02-20T07:46:05;96582;;;5.1;73.8
77469;BME280;66567;50.272;12.818;2023-02-20T07:48:05;96575;;;5.1;73.6
77469;BME280;66567;50.272;12.818;2023-02-20T07:50:05;96572;;;5.1;73.6
77469;BME280;66567;50.272;12.818;2023-02-20T07:52:05;96570;;;5.1;73.6
77469;BME280;66567;50.272;12.818;2023-02-20T07:54:05;96570;;;5.1;73.7
77469;BME280;66567;50.272;12.818;2023-02-20T07:56:05;96564;;;5.2;73.6
77469;BME280;66567;50.272;12.818;2023-02-20T07:58:05;96564;;;5.2;73.5
77469;BME280;66567;50.272;12.818;2023-02-20T08:00:06;96561;;;5.2;73.7
77469;BME280;66567;50.272;12.818;2023-02-20T08:02:05;96554;;;5.3;73.8
77469;BME280;66567;50.272;12.818;2023-02-20T08:04:05;96554;;;5.3;73.5
77469;BME280;66567;50.272;12.818;2023-02-20T08:06:05;96562;;;5.4;73.4
77469;BME280;66567;50.272;12.818;2023-02-20T08:08:05;96559;;;5.5;73.2
77469;BME280;66567;50.272;12.818;2023-02-20T08:10:05;96555;;;5.5;72.7
77469;BME280;66567;50.272;12.818;2023-02-20T08:12:05;96553;;;5.6;72.6
77469;BME280;66567;50.272;12.818;2023-02-20T08:14:06;96553;;;5.6;72.4
77469;BME280;66567;50.272;12.818;2023-02-20T08:16:05;96557;;;5.6;72.6
77469;BME280;66567;50.272;12.818;2023-02-20T08:18:05;96565;;;5.6;72.5
77469;BME280;66567;50.272;12.818;2023-02-20T08:20:06;96567;;;5.7;72.3
77469;BME280;66567;50.272;12.818;2023-02-20T08:22:06;96563;;;5.7;72.5
77469;BME280;66567;50.272;12.818;2023-02-20T08:24:06;96558;;;5.7;72.4
77469;BME280;66567;50.272;12.818;2023-02-20T08:26:05;96551;;;5.7;72.3
77469;BME280;66567;50.272;12.818;2023-02-20T08:28:05;96536;;;5.7;72.1
77469;BME280;66567;50.272;12.818;2023-02-20T08:30:05;96535;;;5.8;72.0
77469;BME280;66567;50.272;12.818;2023-02-20T08:32:05;96542;;;5.8;72.0
77469;BME280;66567;50.272;12.818;2023-02-20T08:34:05;96542;;;5.8;72.0
77469;BME280;66567;50.272;12.818;2023-02-20T08:36:05;96547;;;5.8;72.0
77469;BME280;66567;50.272;12.818;2023-02-20T08:38:06;96542;;;5.8;71.9
77469;BME280;66567;50.272;12.818;2023-02-20T08:40:07;96533;;;5.8;72.1
77469;BME280;66567;50.272;12.818;2023-02-20T08:42:05;96537;;;5.9;72.2
77469;BME280;66567;50.272;12.818;2023-02-20T08:44:05;96534;;;6.0;72.2
77469;BME280;66567;50.272;12.818;2023-02-20T08:46:06;96532;;;6.1;72.0
77469;BME280;66567;50.272;12.818;2023-02-20T08:48:05;96536;;;6.3;71.8
77469;BME280;66567;50.272;12.818;2023-02-20T08:50:05;96542;;;6.4;71.3
77469;BME280;66567;50.272;12.818;2023-02-20T08:52:05;96542;;;6.6;70.9
77469;BME280;66567;50.272;12.818;2023-02-20T08:54:05;96535;;;6.7;69.6
77469;BME280;66567;50.272;12.818;2023-02-20T08:56:06;96533;;;6.8;69.7
77469;BME280;66567;50.272;12.818;2023-02-20T08:58:05;96526;;;6.8;69.4
77469;BME280;66567;50.272;12.818;2023-02-20T09:00:05;96523;;;6.9;68.8
77469;BME280;66567;50.272;12.818;2023-02-20T09:02:05;96515;;;6.9;68.7
77469;BME280;66567;50.272;12.818;2023-02-20T09:04:06;96518;;;7.0;68.1
77469;BME280;66567;50.272;12.818;2023-02-20T09:06:05;96514;;;7.1;67.8
77469;BME280;66567;50.272;12.818;2023-02-20T09:08:05;96510;;;7.2;67.2
77469;BME280;66567;50.272;12.818;2023-02-20T09:10:05;96511;;;7.4;66.8
77469;BME280;66567;50.272;12.818;2023-02-20T09:12:05;96503;;;7.5;66.1
77469;BME280;66567;50.272;12.818;2023-02-20T09:28:05;96494;;;8.2;64.3
77469;BME280;66567;50.272;12.818;2023-02-20T09:30:05;96491;;;8.4;63.1
77469;BME280;66567;50.272;12.818;2023-02-20T09:32:05;96487;;;8.6;63.1
77469;BME280;66567;50.272;12.818;2023-02-20T09:34:05;96481;;;8.7;61.4
77469;BME280;66567;50.272;12.818;2023-02-20T09:36:05;96483;;;8.9;60.5
77469;BME280;66567;50.272;12.818;2023-02-20T09:38:06;96489;;;9.0;60.9
77469;BME280;66567;50.272;12.818;2023-02-20T09:40:05;96484;;;9.1;59.1
77469;BME280;66567;50.272;12.818;2023-02-20T09:46:10;96472;;;9.0;58.6
77469;BME280;66567;50.272;12.818;2023-02-20T09:48:27;96471;;;9.0;58.1
77469;BME280;66567;50.272;12.818;2023-02-20T09:50:09;96470;;;8.9;58.0
77469;BME280;66567;50.272;12.818;2023-02-20T09:52:09;96473;;;8.9;57.6
77469;BME280;66567;50.272;12.818;2023-02-20T09:56:06;96472;;;8.7;58.2
77469;BME280;66567;50.272;12.818;2023-02-20T09:58:05;96466;;;8.6;58.1
77469;BME280;66567;50.272;12.818;2023-02-20T10:00:09;96466;;;8.6;58.4
77469;BME280;66567;50.272;12.818;2023-02-20T10:02:26;96461;;;8.5;58.1
77469;BME280;66567;50.272;12.818;2023-02-20T10:04:09;96461;;;8.5;58.5
77469;BME280;66567;50.272;12.818;2023-02-20T10:06:16;96455;;;8.4;58.7
77469;BME280;66567;50.272;12.818;2023-02-20T10:08:07;96453;;;8.4;58.9
77469;BME280;66567;50.272;12.818;2023-02-20T10:16:19;96439;;;8.4;59.4
77469;BME280;66567;50.272;12.818;2023-02-20T10:20:16;96439;;;8.4;59.9
77469;BME280;66567;50.272;12.818;2023-02-20T10:26:10;96428;;;8.4;59.8
77469;BME280;66567;50.272;12.818;2023-02-20T10:28:08;96426;;;8.4;59.8
77469;BME280;66567;50.272;12.818;2023-02-20T10:30:05;96427;;;8.5;60.0
77469;BME280;66567;50.272;12.818;2023-02-20T10:32:08;96426;;;8.5;60.2
77469;BME280;66567;50.272;12.818;2023-02-20T10:34:08;96428;;;8.6;59.9
77469;BME280;66567;50.272;12.818;2023-02-20T10:38:07;96427;;;8.7;60.4
77469;BME280;66567;50.272;12.818;2023-02-20T10:40:24;96428;;;8.7;59.2
77469;BME280;66567;50.272;12.818;2023-02-20T10:42:09;96427;;;8.8;59.5
77469;BME280;66567;50.272;12.818;2023-02-20T10:46:11;96420;;;8.8;58.8
77469;BME280;66567;50.272;12.818;2023-02-20T10:48:07;96415;;;8.8;59.1
77469;BME280;66567;50.272;12.818;2023-02-20T10:50:08;96415;;;8.8;58.7
77469;BME280;66567;50.272;12.818;2023-02-20T10:52:08;96413;;;8.8;58.8
77469;BME280;66567;50.272;12.818;2023-02-20T10:54:07;96412;;;8.8;58.3
77469;BME280;66567;50.272;12.818;2023-02-20T11:00:11;96399;;;9.1;58.0
77469;BME280;66567;50.272;12.818;2023-02-20T11:02:08;96396;;;9.2;58.1
77469;BME280;66567;50.272;12.818;2023-02-20T11:04:11;96382;;;9.4;57.9
77469;BME280;66567;50.272;12.818;2023-02-20T11:06:07;96378;;;9.6;57.0
77469;BME280;66567;50.272;12.818;2023-02-20T11:08:05;96371;;;9.8;56.3
77469;BME280;66567;50.272;12.818;2023-02-20T11:10:05;96372;;;9.9;55.6
77469;BME280;66567;50.272;12.818;2023-02-20T11:12:05;96367;;;10.1;55.8
77469;BME280;66567;50.272;12.818;2023-02-20T11:16:08;96358;;;10.1;54.8
77469;BME280;66567;50.272;12.818;2023-02-20T11:18:15;96357;;;10.2;55.1
77469;BME280;66567;50.272;12.818;2023-02-20T11:20:38;96354;;;10.3;54.3
77469;BME280;66567;50.272;12.818;2023-02-20T11:22:05;96351;;;10.4;54.1
77469;BME280;66567;50.272;12.818;2023-02-20T11:28:16;96349;;;10.6;54.2
77469;BME280;66567;50.272;12.818;2023-02-20T11:30:31;96347;;;10.6;53.7
77469;BME280;66567;50.272;12.818;2023-02-20T11:34:12;96333;;;10.6;53.4
77469;BME280;66567;50.272;12.818;2023-02-20T11:36:17;96335;;;10.6;53.6
77469;BME280;66567;50.272;12.818;2023-02-20T11:38:26;96335;;;10.6;53.9
77469;BME280;66567;50.272;12.818;2023-02-20T11:42:21;96329;;;10.5;54.2
77469;BME280;66567;50.272;12.818;2023-02-20T11:48:09;96321;;;10.4;53.6
77469;BME280;66567;50.272;12.818;2023-02-20T11:50:14;96313;;;10.4;54.0
77469;BME280;66567;50.272;12.818;2023-02-20T11:52:08;96309;;;10.5;54.6
77469;BME280;66567;50.272;12.818;2023-02-20T11:54:25;96310;;;10.6;54.3
77469;BME280;66567;50.272;12.818;2023-02-20T11:58:05;96308;;;10.8;54.4
77469;BME280;66567;50.272;12.818;2023-02-20T12:00:10;96308;;;10.9;53.4
77469;BME280;66567;50.272;12.818;2023-02-20T12:04:17;96314;;;11.1;52.8
77469;BME280;66567;50.272;12.818;2023-02-20T12:12:06;96312;;;11.2;52.0
77469;BME280;66567;50.272;12.818;2023-02-20T12:14:09;96310;;;11.2;52.1
77469;BME280;66567;50.272;12.818;2023-02-20T12:20:10;96305;;;11.0;52.6
77469;BME280;66567;50.272;12.818;2023-02-20T12:28:12;96297;;;10.9;52.9
77469;BME280;66567;50.272;12.818;2023-02-20T12:36:25;96292;;;10.9;53.4
77469;BME280;66567;50.272;12.818;2023-02-20T12:40:20;96290;;;10.9;53.6
77469;BME280;66567;50.272;12.818;2023-02-20T12:44:16;96283;;;10.9;53.5
77469;BME280;66567;50.272;12.818;2023-02-20T12:54:46;96272;;;11.0;52.1
77469;BME280;66567;50.272;12.818;2023-02-20T13:00:27;96262;;;11.2;51.7
77469;BME280;66567;50.272;12.818;2023-02-20T13:02:19;96262;;;11.2;51.5
77469;BME280;66567;50.272;12.818;2023-02-20T13:06:05;96256;;;11.4;51.4
77469;BME280;66567;50.272;12.818;2023-02-20T13:08:17;96253;;;11.4;51.4
77469;BME280;66567;50.272;12.818;2023-02-20T13:10:16;96251;;;11.5;51.0
77469;BME280;66567;50.272;12.818;2023-02-20T13:12:10;96241;;;11.6;50.7
77469;BME280;66567;50.272;12.818;2023-02-20T13:16:09;96236;;;11.7;50.0
77469;BME280;66567;50.272;12.818;2023-02-20T13:20:17;96229;;;11.8;50.5
77469;BME280;66567;50.272;12.818;2023-02-20T13:22:05;96228;;;11.8;50.4
77469;BME280;66567;50.272;12.818;2023-02-20T13:28:24;96221;;;12.0;49.8
77469;BME280;66567;50.272;12.818;2023-02-20T13:30:18;96216;;;12.1;49.3
77469;BME280;66567;50.272;12.818;2023-02-20T13:36:11;96208;;;12.4;49.2
77469;BME280;66567;50.272;12.818;2023-02-20T13:38:14;96212;;;12.5;47.4
77469;BME280;66567;50.272;12.818;2023-02-20T13:40:33;96213;;;12.6;47.2
77469;BME280;66567;50.272;12.818;2023-02-20T13:42:31;96214;;;12.7;47.5
77469;BME280;66567;50.272;12.818;2023-02-20T13:44:31;96212;;;12.9;47.0
77469;BME280;66567;50.272;12.818;2023-02-20T13:48:19;96205;;;13.1;46.2
77469;BME280;66567;50.272;12.818;2023-02-20T13:50:31;96201;;;13.1;47.0
77469;BME280;66567;50.272;12.818;2023-02-20T13:54:19;96197;;;13.1;46.6
77469;BME280;66567;50.272;12.818;2023-02-20T13:56:14;96195;;;13.2;45.8
77469;BME280;66567;50.272;12.818;2023-02-20T13:58:10;96198;;;13.2;45.4
77469;BME280;66567;50.272;12.818;2023-02-20T14:00:20;96195;;;13.3;45.3
77469;BME280;66567;50.272;12.818;2023-02-20T14:02:16;96192;;;13.4;45.3
77469;BME280;66567;50.272;12.818;2023-02-20T14:04:06;96196;;;13.4;44.8
77469;BME280;66567;50.272;12.818;2023-02-20T14:06:16;96185;;;13.5;45.0
77469;BME280;66567;50.272;12.818;2023-02-20T14:08:05;96181;;;13.5;44.8
77469;BME280;66567;50.272;12.818;2023-02-20T14:10:16;96175;;;13.6;45.0
77469;BME280;66567;50.272;12.818;2023-02-20T14:12:07;96176;;;13.6;44.3
77469;BME280;66567;50.272;12.818;2023-02-20T14:14:10;96174;;;13.7;44.0
77469;BME280;66567;50.272;12.818;2023-02-20T14:18:09;96170;;;13.7;43.2
77469;BME280;66567;50.272;12.818;2023-02-20T14:20:06;96165;;;13.6;43.6
77469;BME280;66567;50.272;12.818;2023-02-20T14:24:16;96158;;;13.6;43.7
77469;BME280;66567;50.272;12.818;2023-02-20T14:26:18;96155;;;13.6;43.4
77469;BME280;66567;50.272;12.818;2023-02-20T14:28:11;96157;;;13.7;43.3
77469;BME280;66567;50.272;12.818;2023-02-20T14:30:11;96154;;;13.8;42.8
77469;BME280;66567;50.272;12.818;2023-02-20T14:32:05;96152;;;13.8;42.7
77469;BME280;66567;50.272;12.818;2023-02-20T14:34:08;96147;;;13.9;43.1
77469;BME280;66567;50.272;12.818;2023-02-20T14:38:19;96150;;;14.0;42.6
77469;BME280;66567;50.272;12.818;2023-02-20T14:42:05;96140;;;13.7;42.3
77469;BME280;66567;50.272;12.818;2023-02-20T14:44:13;96138;;;13.5;42.9
77469;BME280;66567;50.272;12.818;2023-02-20T14:46:06;96142;;;13.3;43.4
77469;BME280;66567;50.272;12.818;2023-02-20T14:48:16;96142;;;13.2;43.6
77469;BME280;66567;50.272;12.818;2023-02-20T14:54:17;96136;;;13.0;44.0
77469;BME280;66567;50.272;12.818;2023-02-20T14:56:10;96131;;;12.9;44.2
77469;BME280;66567;50.272;12.818;2023-02-20T14:58:06;96134;;;12.8;44.6
77469;BME280;66567;50.272;12.818;2023-02-20T15:06:05;96128;;;12.3;45.6
77469;BME280;66567;50.272;12.818;2023-02-20T15:10:27;96129;;;12.2;46.1
77469;BME280;66567;50.272;12.818;2023-02-20T15:12:27;96125;;;12.2;46.5
77469;BME280;66567;50.272;12.818;2023-02-20T15:14:15;96128;;;12.1;46.4
77469;BME280;66567;50.272;12.818;2023-02-20T15:16:07;96123;;;12.0;46.5
77469;BME280;66567;50.272;12.818;2023-02-20T15:18:07;96123;;;11.9;46.8
77469;BME280;66567;50.272;12.818;2023-02-20T15:20:17;96124;;;11.8;46.9
77469;BME280;66567;50.272;12.818;2023-02-20T15:22:19;96123;;;11.7;47.1
77469;BME280;66567;50.272;12.818;2023-02-20T15:28:12;96119;;;11.4;47.4
77469;BME280;66567;50.272;12.818;2023-02-20T15:30:11;96122;;;11.4;47.9
77469;BME280;66567;50.272;12.818;2023-02-20T15:34:17;96121;;;11.2;48.0
77469;BME280;66567;50.272;12.818;2023-02-20T15:36:08;96116;;;11.2;48.4
77469;BME280;66567;50.272;12.818;2023-02-20T15:38:06;96119;;;11.1;48.8
77469;BME280;66567;50.272;12.818;2023-02-20T15:40:24;96122;;;11.1;48.8
77469;BME280;66567;50.272;12.818;2023-02-20T15:42:09;96125;;;11.0;48.9
77469;BME280;66567;50.272;12.818;2023-02-20T15:44:05;96128;;;11.0;49.2
77469;BME280;66567;50.272;12.818;2023-02-20T15:46:05;96133;;;10.9;49.6
77469;BME280;66567;50.272;12.818;2023-02-20T15:48:06;96135;;;10.8;49.9
77469;BME280;66567;50.272;12.818;2023-02-20T15:50:05;96133;;;10.8;50.2
77469;BME280;66567;50.272;12.818;2023-02-20T15:52:06;96133;;;10.7;50.7
77469;BME280;66567;50.272;12.818;2023-02-20T15:54:06;96133;;;10.7;51.0
77469;BME280;66567;50.272;12.818;2023-02-20T15:56:05;96137;;;10.6;51.7
77469;BME280;66567;50.272;12.818;2023-02-20T15:58:26;96140;;;10.6;52.1
77469;BME280;66567;50.272;12.818;2023-02-20T16:00:05;96142;;;10.5;52.3
77469;BME280;66567;50.272;12.818;2023-02-20T16:02:11;96140;;;10.4;52.7
77469;BME280;66567;50.272;12.818;2023-02-20T16:04:06;96144;;;10.4;52.9